createdAt,value
2022-12-20T00:01:39.590Z,-0.05
2022-12-20T00:04:07.871Z,0.16
2022-12-20T00:06:36.212Z,-0.13
2022-12-20T00:09:06.705Z,0.23
2022-12-20T00:11:35.548Z,0.20
2022-12-20T00:14:03.582Z,0.12
2022-12-20T00:16:31.912Z,0.49
2022-12-20T00:19:02.196Z,0.56
2022-12-20T00:21:31.137Z,0.42
2022-12-20T00:23:59.596Z,0.31
2022-12-20T00:26:30.525Z,0.61
2022-12-20T00:29:00.292Z,0.31
2022-12-20T00:31:30.383Z,0.07
2022-12-20T00:33:59.567Z,0.07
2022-12-20T00:36:30.387Z,-0.15
2022-12-20T00:39:00.611Z,0.20
2022-12-20T00:41:31.007Z,0.15
2022-12-20T00:43:59.767Z,0.17
2022-12-20T00:46:28.114Z,0.34
2022-12-20T00:48:57.053Z,0.55
2022-12-20T00:51:28.405Z,0.56
2022-12-20T00:53:56.906Z,-0.23
2022-12-20T00:56:25.977Z,-0.03
2022-12-20T00:58:58.662Z,0.09
2022-12-20T01:01:30.791Z,0.33
2022-12-20T01:03:59.361Z,0.31
2022-12-20T01:06:28.537Z,0.31
2022-12-20T01:08:56.761Z,0.40
2022-12-20T01:11:43.986Z,0.03
2022-12-20T01:14:15.399Z,0.50
2022-12-20T01:16:45.633Z,0.34
2022-12-20T01:19:17.368Z,0.48
2022-12-20T01:21:45.776Z,0.55
2022-12-20T01:24:15.468Z,0.37
2022-12-20T01:26:44.056Z,-0.35
2022-12-20T01:29:12.311Z,-0.05
2022-12-20T01:31:40.804Z,0.28
2022-12-20T01:34:08.990Z,0.08
2022-12-20T01:36:39.973Z,-0.39
2022-12-20T01:39:12.184Z,0.23
2022-12-20T01:41:40.641Z,0.06
2022-12-20T01:44:18.017Z,-0.05
2022-12-20T01:46:47.744Z,0.32
2022-12-20T01:49:22.187Z,0.45
2022-12-20T01:52:00.840Z,0.24
2022-12-20T01:54:55.362Z,0.26
2022-12-20T01:57:27.866Z,-0.25
2022-12-20T01:59:57.039Z,-0.26
2022-12-20T02:02:24.967Z,-0.06
2022-12-20T02:04:53.324Z,-0.30
2022-12-20T02:07:27.068Z,0.09
2022-12-20T02:09:57.214Z,0.14
2022-12-20T02:12:27.065Z,-0.46
2022-12-20T02:15:15.379Z,-0.88
2022-12-20T02:17:43.927Z,-0.62
2022-12-20T02:20:39.336Z,-0.69
2022-12-20T02:23:46.385Z,-0.68
2022-12-20T02:26:39.651Z,-0.34
2022-12-20T02:29:31.281Z,-0.47
2022-12-20T02:32:19.389Z,-0.34
2022-12-20T02:34:47.324Z,-0.05
2022-12-20T02:37:15.501Z,-0.18
2022-12-20T02:39:45.198Z,-0.35
2022-12-20T02:42:17.868Z,0.01
2022-12-20T02:45:12.203Z,0.04
2022-12-20T02:48:07.902Z,-0.02
2022-12-20T02:50:40.446Z,-0.47
2022-12-20T02:53:09.957Z,0.31
2022-12-20T02:55:56.834Z,-0.15
2022-12-20T02:58:42.768Z,-0.80
2022-12-20T03:01:20.407Z,-0.05
2022-12-20T03:03:49.236Z,-0.57
2022-12-20T03:06:17.641Z,-0.27
2022-12-20T03:08:45.627Z,0.02
2022-12-20T03:11:14.345Z,0.02
2022-12-20T03:13:42.664Z,-0.01
2022-12-20T03:16:11.359Z,0.23
2022-12-20T03:18:39.991Z,0.13
2022-12-20T03:21:08.333Z,-0.08
2022-12-20T03:23:36.390Z,0.23
2022-12-20T03:26:05.034Z,-0.21
2022-12-20T03:28:34.030Z,-0.60
2022-12-20T03:31:01.960Z,-0.07
2022-12-20T03:33:30.664Z,-0.44
2022-12-20T03:35:59.323Z,-0.21
2022-12-20T03:38:27.692Z,-0.14
2022-12-20T03:40:55.753Z,0.06
2022-12-20T03:43:24.171Z,0.11
2022-12-20T03:45:52.088Z,0.06
2022-12-20T03:48:20.207Z,-0.18
2022-12-20T03:50:48.824Z,-0.14
2022-12-20T03:53:16.968Z,0.13
2022-12-20T03:55:45.754Z,0.53
2022-12-20T03:58:14.630Z,-0.32
2022-12-20T04:00:42.711Z,-0.03
2022-12-20T04:03:13.263Z,-0.07
2022-12-20T04:05:41.358Z,0.20
2022-12-20T04:08:09.201Z,0.41
2022-12-20T04:10:57.644Z,-0.79
2022-12-20T04:13:26.405Z,-0.31
2022-12-20T04:15:59.984Z,-0.57
2022-12-20T04:18:29.407Z,-0.53
2022-12-20T04:21:01.071Z,-0.67
2022-12-20T04:23:29.574Z,-0.53
2022-12-20T04:25:57.869Z,-0.36
2022-12-20T04:28:25.801Z,-0.29
2022-12-20T04:30:54.527Z,-0.29
2022-12-20T04:33:23.836Z,-0.42
2022-12-20T04:35:52.337Z,-0.32
2022-12-20T04:38:23.086Z,-0.29
2022-12-20T04:40:53.120Z,0.00
2022-12-20T04:43:22.015Z,-0.39
2022-12-20T04:45:53.095Z,-0.70
2022-12-20T04:48:55.046Z,-0.10
2022-12-20T04:51:12.081Z,-0.30
2022-12-20T04:53:49.739Z,-0.23
2022-12-20T04:56:27.306Z,-0.28
2022-12-20T04:58:57.959Z,0.01
2022-12-20T05:01:26.940Z,0.00
2022-12-20T05:03:55.827Z,0.56
2022-12-20T05:06:24.486Z,-0.04
2022-12-20T05:08:56.267Z,-0.09
2022-12-20T05:11:25.561Z,0.17
2022-12-20T05:13:53.504Z,0.00
2022-12-20T05:16:21.941Z,0.04
2022-12-20T05:18:51.648Z,0.18
2022-12-20T05:21:38.541Z,-0.09
2022-12-20T05:24:26.402Z,0.14
2022-12-20T05:26:54.981Z,0.09
2022-12-20T05:29:23.207Z,0.48
2022-12-20T05:31:51.382Z,0.41
2022-12-20T05:34:20.314Z,0.11
2022-12-20T05:36:49.071Z,0.23
2022-12-20T05:39:17.046Z,0.44
2022-12-20T05:41:45.828Z,0.35
2022-12-20T05:44:14.901Z,0.32
2022-12-20T05:46:43.402Z,0.40
2022-12-20T05:49:11.551Z,0.23
2022-12-20T05:51:40.426Z,0.22
2022-12-20T05:54:09.628Z,0.13
2022-12-20T05:56:38.772Z,0.27
2022-12-20T05:59:07.047Z,0.38
2022-12-20T06:01:37.246Z,0.16
2022-12-20T06:04:06.062Z,0.24
2022-12-20T06:06:34.377Z,0.17
2022-12-20T06:09:02.362Z,0.29
2022-12-20T06:11:31.694Z,0.09
2022-12-20T06:13:59.927Z,0.14
2022-12-20T06:16:28.790Z,0.26
2022-12-20T06:18:57.487Z,0.02
2022-12-20T06:21:25.478Z,0.12
2022-12-20T06:23:53.861Z,-0.08
2022-12-20T06:26:25.399Z,-0.22
2022-12-20T06:28:57.324Z,-0.19
2022-12-20T06:31:25.999Z,-0.18
2022-12-20T06:33:54.979Z,0.02
2022-12-20T06:36:23.370Z,-0.30
2022-12-20T06:38:52.259Z,0.04
2022-12-20T06:41:20.574Z,-0.08
2022-12-20T06:43:48.692Z,0.06
2022-12-20T06:46:17.533Z,-0.06
2022-12-20T06:48:45.981Z,-0.35
2022-12-20T06:51:14.341Z,-0.12
2022-12-20T06:53:42.822Z,-0.44
2022-12-20T06:56:10.851Z,-0.04
2022-12-20T06:58:38.866Z,0.25
2022-12-20T07:01:07.483Z,0.11
2022-12-20T07:03:35.535Z,-0.01
2022-12-20T07:06:03.599Z,0.02
2022-12-20T07:08:31.902Z,-0.22
2022-12-20T07:11:07.509Z,-0.14
2022-12-20T07:13:36.050Z,0.07
2022-12-20T07:16:05.010Z,0.07
2022-12-20T07:18:33.574Z,0.05
2022-12-20T07:21:03.027Z,-0.15
2022-12-20T07:23:31.535Z,-0.37
2022-12-20T07:26:01.015Z,-0.22
2022-12-20T07:28:29.412Z,0.44
2022-12-20T07:31:01.819Z,-0.15
2022-12-20T07:33:31.118Z,0.02
2022-12-20T07:36:07.388Z,0.50
2022-12-20T07:38:36.122Z,0.30
2022-12-20T07:41:13.031Z,0.13
2022-12-20T07:43:41.875Z,0.48
2022-12-20T07:46:12.179Z,0.65
2022-12-20T07:48:40.322Z,0.93
2022-12-20T07:51:25.215Z,0.95
2022-12-20T07:54:34.722Z,0.64
2022-12-20T07:57:06.788Z,0.53
2022-12-20T07:59:40.540Z,0.82
2022-12-20T08:02:16.536Z,0.85
2022-12-20T08:04:45.214Z,1.09
2022-12-20T08:07:13.963Z,1.24
2022-12-20T08:09:44.371Z,1.31
2022-12-20T08:12:14.708Z,1.22
2022-12-20T08:14:42.908Z,1.65
2022-12-20T08:17:12.007Z,1.06
2022-12-20T08:19:40.738Z,1.08
2022-12-20T08:22:08.730Z,0.85
2022-12-20T08:24:36.742Z,0.98
2022-12-20T08:27:05.490Z,1.10
2022-12-20T08:29:33.487Z,0.80
2022-12-20T08:32:03.185Z,1.30
2022-12-20T08:34:31.540Z,1.63
2022-12-20T08:37:00.147Z,1.60
2022-12-20T08:39:28.320Z,2.13
2022-12-20T08:41:56.680Z,2.72
2022-12-20T08:44:24.890Z,3.12
2022-12-20T08:47:00.670Z,3.27
2022-12-20T08:49:32.781Z,4.06
2022-12-20T08:52:01.000Z,4.72
2022-12-20T08:54:29.582Z,4.83
2022-12-20T08:56:58.021Z,4.69
2022-12-20T08:59:26.953Z,5.62
2022-12-20T09:01:55.369Z,4.92
2022-12-20T09:04:23.565Z,5.22
2022-12-20T09:06:51.594Z,5.37
2022-12-20T09:09:19.983Z,4.80
2022-12-20T09:11:48.038Z,5.02
2022-12-20T09:14:16.031Z,5.81
2022-12-20T09:16:44.377Z,4.90
2022-12-20T09:19:14.015Z,5.00
2022-12-20T09:21:41.962Z,4.88
2022-12-20T09:24:12.372Z,4.70
2022-12-20T09:26:41.253Z,4.42
2022-12-20T09:29:11.259Z,3.72
2022-12-20T09:31:39.683Z,3.68
2022-12-20T09:34:07.755Z,3.81
2022-12-20T09:36:36.934Z,3.27
2022-12-20T09:39:05.310Z,3.42
2022-12-20T09:41:45.379Z,3.10
2022-12-20T09:44:23.204Z,3.59
2022-12-20T09:46:58.415Z,3.87
2022-12-20T09:49:31.324Z,4.72
2022-12-20T09:52:17.618Z,5.80
2022-12-20T09:55:24.373Z,6.83
2022-12-20T09:57:58.069Z,6.90
2022-12-20T10:00:28.414Z,6.73
2022-12-20T10:03:08.225Z,6.78
2022-12-20T10:05:47.425Z,6.84
2022-12-20T10:08:58.127Z,7.86
2022-12-20T10:11:43.398Z,7.26
2022-12-20T10:14:31.415Z,7.45
2022-12-20T10:17:06.313Z,7.31
2022-12-20T10:20:21.406Z,6.90
2022-12-20T10:23:15.580Z,6.20
2022-12-20T10:25:48.300Z,6.64
2022-12-20T10:28:17.711Z,6.09
2022-12-20T10:30:46.214Z,5.71
2022-12-20T10:33:23.447Z,5.33
2022-12-20T10:35:52.606Z,5.82
2022-12-20T10:38:21.263Z,5.46
2022-12-20T10:43:56.641Z,6.90
2022-12-20T10:46:35.760Z,7.33
2022-12-20T10:49:31.526Z,7.68
2022-12-20T10:52:14.392Z,8.16
2022-12-20T10:54:44.693Z,7.98
2022-12-20T10:57:24.281Z,8.38
2022-12-20T11:00:03.045Z,7.95
2022-12-20T11:02:41.952Z,9.16
2022-12-20T11:05:11.128Z,10.04
2022-12-20T11:08:42.738Z,9.81
2022-12-20T11:11:42.484Z,9.07
2022-12-20T11:14:43.949Z,7.69
2022-12-20T11:17:48.044Z,7.11
2022-12-20T11:20:29.166Z,6.99
2022-12-20T11:23:46.416Z,6.82
2022-12-20T11:26:31.600Z,7.12
2022-12-20T11:29:25.465Z,7.22
2022-12-20T11:32:15.140Z,7.16
2022-12-20T11:34:57.923Z,6.89
2022-12-20T11:37:27.279Z,6.59
2022-12-20T11:39:55.614Z,6.46
2022-12-20T11:42:33.651Z,6.33
2022-12-20T11:45:24.122Z,6.27
2022-12-20T11:48:10.249Z,6.22
2022-12-20T11:50:56.957Z,6.94
2022-12-20T11:53:41.087Z,7.12
2022-12-20T11:56:21.347Z,7.81
2022-12-20T11:58:52.974Z,9.19
2022-12-20T12:01:25.952Z,10.33
2022-12-20T12:04:15.791Z,9.99
2022-12-20T12:06:48.047Z,8.88
2022-12-20T12:09:53.669Z,9.32
2022-12-20T12:12:32.351Z,9.26
2022-12-20T12:15:23.183Z,9.72
2022-12-20T12:18:05.604Z,9.12
2022-12-20T12:20:45.950Z,8.10
2022-12-20T12:23:19.185Z,7.21
2022-12-20T12:25:47.418Z,6.07
2022-12-20T12:28:17.468Z,5.33
2022-12-20T12:31:08.366Z,5.07
2022-12-20T12:33:44.098Z,5.17
2022-12-20T12:36:11.958Z,4.31
2022-12-20T12:39:06.681Z,4.29
2022-12-20T12:41:34.579Z,3.88
2022-12-20T12:44:31.473Z,3.86
2022-12-20T12:47:07.410Z,3.87
2022-12-20T12:49:36.676Z,3.76
2022-12-20T12:52:05.538Z,3.73
2022-12-20T12:54:38.832Z,3.81
2022-12-20T12:57:39.588Z,3.60
2022-12-20T13:01:11.203Z,3.43
2022-12-20T13:03:53.512Z,3.86
2022-12-20T13:06:30.972Z,3.84
2022-12-20T13:08:59.209Z,3.20
2022-12-20T13:11:42.745Z,3.33
2022-12-20T13:14:14.715Z,3.34
2022-12-20T13:19:35.831Z,3.21
2022-12-20T13:22:06.868Z,3.61
2022-12-20T13:24:50.898Z,3.69
2022-12-20T13:27:31.002Z,3.84
2022-12-20T13:30:17.573Z,3.45
2022-12-20T13:32:48.603Z,3.68
2022-12-20T13:35:26.279Z,3.82
2022-12-20T13:37:59.453Z,3.66
2022-12-20T13:40:39.042Z,3.41
2022-12-20T13:43:34.976Z,3.21
2022-12-20T13:46:03.313Z,3.59
2022-12-20T13:48:43.096Z,3.56
2022-12-20T13:51:17.106Z,3.15
2022-12-20T13:53:52.185Z,3.35
2022-12-20T13:56:33.589Z,3.39
2022-12-20T13:59:29.296Z,3.46
2022-12-20T14:02:03.230Z,3.47
2022-12-20T14:04:45.750Z,3.10
2022-12-20T14:07:16.910Z,3.77
2022-12-20T14:09:47.008Z,3.23
2022-12-20T14:12:26.261Z,3.68
2022-12-20T14:14:57.641Z,3.86
2022-12-20T14:17:27.018Z,3.75
2022-12-20T14:20:14.355Z,3.37
2022-12-20T14:22:57.913Z,3.15
2022-12-20T14:25:48.032Z,3.86
2022-12-20T14:28:28.911Z,3.07
2022-12-20T14:30:59.868Z,3.35
2022-12-20T14:33:38.436Z,3.54
2022-12-20T14:36:16.784Z,3.30
2022-12-20T14:38:51.174Z,3.25
2022-12-20T14:41:40.105Z,3.52
2022-12-20T14:44:17.866Z,3.38
2022-12-20T14:47:05.323Z,3.01
2022-12-20T14:49:35.235Z,3.03
2022-12-20T14:52:11.204Z,2.51
2022-12-20T14:55:11.946Z,3.10
2022-12-20T14:57:52.176Z,3.15
2022-12-20T15:00:25.647Z,3.23
2022-12-20T15:03:01.259Z,3.15
2022-12-20T15:05:44.494Z,3.05
2022-12-20T15:08:33.096Z,2.99
2022-12-20T15:11:12.588Z,2.78
2022-12-20T15:13:43.607Z,2.93
2022-12-20T15:16:18.788Z,2.82
2022-12-20T15:18:49.135Z,2.51
2022-12-20T15:21:31.053Z,2.91
2022-12-20T15:24:02.505Z,2.68
2022-12-20T15:26:31.374Z,2.83
2022-12-20T15:28:59.461Z,3.14
2022-12-20T15:31:33.335Z,2.75
2022-12-20T15:34:05.549Z,2.97
2022-12-20T15:36:35.597Z,3.61
2022-12-20T15:39:12.385Z,3.15
2022-12-20T15:41:43.965Z,2.89
2022-12-20T15:44:19.753Z,2.68
2022-12-20T15:46:48.370Z,3.27
2022-12-20T15:49:19.372Z,2.86
2022-12-20T15:51:49.288Z,2.52
2022-12-20T15:54:26.833Z,2.66
2022-12-20T15:56:55.968Z,2.80
2022-12-20T15:59:58.838Z,3.09
2022-12-20T16:02:28.938Z,3.15
2022-12-20T16:04:59.052Z,3.11
2022-12-20T16:07:28.154Z,2.68
2022-12-20T16:09:56.226Z,2.59
2022-12-20T16:12:31.118Z,2.43
2022-12-20T16:15:00.589Z,2.73
2022-12-20T16:17:29.066Z,2.94
2022-12-20T16:19:57.066Z,2.42
2022-12-20T16:22:26.570Z,2.64
2022-12-20T16:24:55.244Z,2.30
2022-12-20T16:27:24.402Z,2.53
2022-12-20T16:29:52.424Z,2.60
2022-12-20T16:32:24.267Z,2.60
2022-12-20T16:34:52.856Z,2.40
2022-12-20T16:37:21.386Z,2.17
2022-12-20T16:39:51.473Z,2.04
2022-12-20T16:42:23.267Z,2.45
2022-12-20T16:44:53.030Z,2.28
2022-12-20T16:47:21.901Z,2.13
2022-12-20T16:49:53.402Z,2.20
2022-12-20T16:52:23.924Z,2.38
2022-12-20T16:54:52.177Z,2.48
2022-12-20T16:57:21.778Z,2.72
2022-12-20T16:59:50.731Z,2.31
2022-12-20T17:02:27.130Z,2.15
2022-12-20T17:05:18.762Z,1.96
2022-12-20T17:07:55.498Z,1.94
2022-12-20T17:10:27.453Z,2.12
2022-12-20T17:12:55.646Z,2.21
2022-12-20T17:15:30.103Z,2.21
2022-12-20T17:18:00.851Z,2.05
2022-12-20T17:20:36.754Z,1.95
2022-12-20T17:25:54.537Z,2.26
2022-12-20T17:28:26.687Z,1.79
2022-12-20T17:31:00.996Z,2.11
2022-12-20T17:33:33.805Z,1.98
2022-12-20T17:36:02.834Z,2.16
2022-12-20T17:38:30.841Z,2.55
2022-12-20T17:40:58.837Z,2.30
2022-12-20T17:43:27.844Z,2.34
2022-12-20T17:45:56.847Z,1.94
2022-12-20T17:48:32.611Z,2.23
2022-12-20T17:51:03.204Z,2.18
2022-12-20T17:53:46.440Z,2.21
2022-12-20T17:56:27.773Z,2.41
2022-12-20T17:58:56.308Z,2.38
2022-12-20T18:01:34.008Z,2.60
2022-12-20T18:04:08.909Z,1.86
2022-12-20T18:06:39.608Z,2.54
2022-12-20T18:09:17.846Z,2.28
2022-12-20T18:11:45.702Z,1.90
2022-12-20T18:14:14.925Z,2.43
2022-12-20T18:16:43.305Z,2.23
2022-12-20T18:19:17.840Z,2.16
2022-12-20T18:21:46.629Z,1.79
2022-12-20T18:24:16.178Z,1.88
2022-12-20T18:26:45.166Z,2.08
2022-12-20T18:29:13.571Z,1.94
2022-12-20T18:31:41.623Z,1.46
2022-12-20T18:34:10.267Z,1.66
2022-12-20T18:36:38.593Z,1.97
2022-12-20T18:39:08.526Z,1.98
2022-12-20T18:41:38.019Z,1.64
2022-12-20T18:44:07.120Z,1.93
2022-12-20T18:46:35.396Z,2.08
2022-12-20T18:49:03.997Z,2.06
2022-12-20T18:51:36.913Z,2.15
2022-12-20T18:54:07.055Z,2.17
2022-12-20T18:56:38.012Z,2.11
2022-12-20T18:59:14.203Z,2.11
2022-12-20T19:01:43.512Z,2.32
2022-12-20T19:04:12.215Z,2.12
2022-12-20T19:06:41.291Z,2.01
2022-12-20T19:09:14.504Z,2.08
2022-12-20T19:11:43.224Z,1.95
2022-12-20T19:14:12.705Z,1.81
2022-12-20T19:16:40.767Z,1.68
2022-12-20T19:19:09.275Z,1.64
2022-12-20T19:21:40.471Z,1.66
2022-12-20T19:24:10.219Z,1.31
2022-12-20T19:26:39.962Z,1.72
2022-12-20T19:29:08.384Z,1.59
2022-12-20T19:31:37.820Z,1.69
2022-12-20T19:34:09.137Z,1.63
2022-12-20T19:36:41.857Z,1.79
2022-12-20T19:39:20.263Z,1.48
2022-12-20T19:42:13.948Z,1.78
2022-12-20T19:44:37.480Z,2.36
2022-12-20T19:47:05.756Z,2.00
2022-12-20T19:49:35.855Z,2.03
2022-12-20T19:52:06.112Z,1.74
2022-12-20T19:54:35.489Z,1.75
2022-12-20T19:57:03.669Z,2.13
2022-12-20T19:59:32.107Z,2.33
2022-12-20T20:02:00.185Z,2.28
2022-12-20T20:04:29.122Z,2.15
2022-12-20T20:06:57.071Z,2.19
2022-12-20T20:09:25.323Z,2.44
2022-12-20T20:11:53.762Z,2.25
2022-12-20T20:14:22.018Z,2.30
2022-12-20T20:16:49.927Z,2.38
2022-12-20T20:19:18.738Z,2.47
2022-12-20T20:21:49.114Z,2.45
2022-12-20T20:24:17.161Z,2.30
2022-12-20T20:26:45.505Z,2.30
2022-12-20T20:29:13.472Z,2.47
2022-12-20T20:31:41.597Z,2.13
2022-12-20T20:34:10.117Z,2.26
2022-12-20T20:36:38.227Z,2.13
2022-12-20T20:39:06.762Z,2.26
2022-12-20T20:41:35.296Z,2.29
2022-12-20T20:44:03.272Z,2.23
2022-12-20T20:46:31.284Z,2.17
2022-12-20T20:48:59.677Z,2.11
2022-12-20T20:51:27.634Z,1.96
2022-12-20T20:53:55.511Z,2.29
2022-12-20T20:56:23.882Z,2.33
2022-12-20T20:58:55.218Z,1.98
2022-12-20T21:01:26.115Z,2.30
2022-12-20T21:03:54.275Z,2.04
2022-12-20T21:06:41.897Z,2.12
2022-12-20T21:09:11.657Z,1.98
2022-12-20T21:11:40.031Z,1.79
2022-12-20T21:14:08.179Z,2.17
2022-12-20T21:16:36.921Z,1.85
2022-12-20T21:19:05.875Z,1.87
2022-12-20T21:21:33.900Z,2.12
2022-12-20T21:24:02.234Z,1.88
2022-12-20T21:26:30.176Z,2.20
2022-12-20T21:28:59.174Z,1.79
2022-12-20T21:31:27.707Z,2.27
2022-12-20T21:33:56.934Z,2.32
2022-12-20T21:36:25.411Z,2.27
2022-12-20T21:38:55.776Z,2.08
2022-12-20T21:41:26.340Z,1.78
2022-12-20T21:43:56.855Z,2.09
2022-12-20T21:46:25.371Z,1.89
2022-12-20T21:48:53.378Z,2.05
2022-12-20T21:51:24.191Z,2.36
2022-12-20T21:53:56.769Z,2.09
2022-12-20T21:56:26.974Z,2.12
2022-12-20T21:58:55.440Z,2.11
2022-12-20T22:01:25.924Z,2.35
2022-12-20T22:03:58.456Z,2.34
2022-12-20T22:06:28.245Z,2.42
2022-12-20T22:09:00.375Z,2.31
2022-12-20T22:11:28.698Z,2.64
2022-12-20T22:13:57.284Z,2.43
2022-12-20T22:16:27.099Z,2.39
2022-12-20T22:18:56.473Z,2.45
2022-12-20T22:21:28.237Z,2.30
2022-12-20T22:23:57.013Z,2.43
2022-12-20T22:26:28.169Z,2.26
2022-12-20T22:28:59.056Z,2.59
2022-12-20T22:31:27.843Z,2.25
2022-12-20T22:33:57.357Z,2.09
2022-12-20T22:36:25.806Z,2.76
2022-12-20T22:38:55.240Z,2.53
2022-12-20T22:41:30.484Z,2.46
2022-12-20T22:43:59.767Z,2.09
2022-12-20T22:46:31.514Z,2.06
2022-12-20T22:48:59.945Z,1.99
2022-12-20T22:51:31.024Z,1.72
2022-12-20T22:54:00.271Z,1.91
2022-12-20T22:56:28.718Z,2.26
2022-12-20T22:58:56.630Z,1.67
2022-12-20T23:01:25.146Z,2.06
2022-12-20T23:03:53.238Z,2.31
2022-12-20T23:06:21.835Z,2.19
2022-12-20T23:08:50.300Z,2.21
2022-12-20T23:11:42.734Z,2.51
2022-12-20T23:14:33.889Z,2.16
2022-12-20T23:17:02.209Z,2.36
2022-12-20T23:19:54.084Z,2.19
2022-12-20T23:22:40.334Z,1.32
2022-12-20T23:25:17.210Z,1.99
2022-12-20T23:27:45.857Z,1.78
2022-12-20T23:30:17.058Z,1.44
2022-12-20T23:32:45.048Z,2.22
2022-12-20T23:35:15.128Z,2.41
2022-12-20T23:37:43.504Z,2.10
2022-12-20T23:40:11.896Z,1.67
2022-12-20T23:42:40.204Z,1.73
2022-12-20T23:45:08.965Z,2.23
2022-12-20T23:47:36.927Z,2.27
2022-12-20T23:50:05.463Z,2.44
2022-12-20T23:52:33.741Z,2.12
2022-12-20T23:55:01.705Z,2.19
2022-12-20T23:57:31.182Z,2.07
2022-12-20T23:59:59.471Z,2.19
